Time;durP1;ratioP1;P1;durP2;ratioP2;P2;SDS_P1;SDS_P2;PMS_P1;PMS_P2;Temp;Humidity;BMP_temperature;BMP_pressure;BME280_temperature;BME280_humidity;BME280_pressure;Samples;Min_cycle;Max_cycle;Signal;HPM_P1;HPM_P2
2023/08/11 00:00:36;;;;;;;18.60;7.10;;;;;;;;;;4971058;28;20035;-66
2023/08/11 00:03:05;;;;;;;9.18;4.30;;;;;;;;;;4956079;28;20342;-66
2023/08/11 00:05:35;;;;;;;7.97;3.45;;;;;;;;;;4955732;28;20259;-66
2023/08/11 00:08:00;;;;;;;8.48;3.17;;;;;;;;;;4955711;29;20023;-65
2023/08/11 00:10:26;;;;;;;10.77;2.85;;;;;;;;;;4955696;29;20393;-66
2023/08/11 00:12:51;;;;;;;6.30;2.65;;;;;;;;;;4955751;29;20058;-62
2023/08/11 00:15:18;;;;;;;13.82;3.70;;;;;;;;;;4955943;28;20023;-64
2023/08/11 00:17:43;;;;;;;9.73;3.65;;;;;;;;;;4955341;28;20051;-65
2023/08/11 00:20:09;;;;;;;12.05;3.40;;;;;;;;;;4955685;28;20164;-62
2023/08/11 00:22:35;;;;;;;9.45;3.35;;;;;;;;;;4955479;29;20020;-65
2023/08/11 00:25:01;;;;;;;8.30;3.55;;;;;;;;;;4955495;29;20444;-61
2023/08/11 00:27:27;;;;;;;12.80;4.60;;;;;;;;;;4955567;29;20110;-65
2023/08/11 00:29:54;;;;;;;10.48;4.13;;;;;;;;;;4955442;29;20491;-68
2023/08/11 00:32:19;;;;;;;12.82;3.58;;;;;;;;;;4955490;28;20039;-63
2023/08/11 00:34:47;;;;;;;10.45;3.80;;;;;;;;;;4955442;28;20026;-65
2023/08/11 00:37:12;;;;;;;8.35;3.20;;;;;;;;;;4955046;28;20412;-64
2023/08/11 00:39:38;;;;;;;7.72;3.00;;;;;;;;;;4955166;28;20030;-64
2023/08/11 00:42:04;;;;;;;7.40;3.22;;;;;;;;;;4955335;28;20037;-65
2023/08/11 00:44:29;;;;;;;6.63;3.10;;;;;;;;;;4955213;28;20469;-65
2023/08/11 00:46:55;;;;;;;12.13;3.30;;;;;;;;;;4954970;28;20114;-65
2023/08/11 00:49:20;;;;;;;12.25;3.72;;;;;;;;;;4955169;28;20042;-65
2023/08/11 00:51:46;;;;;;;10.77;3.83;;;;;;;;;;4954913;28;20091;-66
2023/08/11 00:54:13;;;;;;;10.73;4.18;;;;;;;;;;4955082;28;20027;-65
2023/08/11 00:56:44;;;;;;;7.63;3.25;;;;;;;;;;4959303;28;20311;-66
2023/08/11 00:59:12;;;;;;;12.07;3.20;;;;;;;;;;4973015;28;20031;-66
2023/08/11 01:01:38;;;;;;;12.02;4.13;;;;;;;;;;4960129;28;20035;-66
2023/08/11 01:04:04;;;;;;;8.27;3.83;;;;;;;;;;4954901;28;20046;-65
2023/08/11 01:06:32;;;;;;;9.77;3.58;;;;;;;;;;4954684;28;20106;-65
2023/08/11 01:09:00;;;;;;;9.82;3.10;;;;;;;;;;4954813;28;20031;-64
2023/08/11 01:11:40;;;;;;;7.30;3.20;;;;;;;;;;4954737;28;20024;-65
2023/08/11 01:14:27;;;;;;;7.90;3.22;;;;;;;;;;4954805;28;20074;-66
2023/08/11 01:16:55;;;;;;;7.72;3.90;;;;;;;;;;4954504;28;20043;-66
2023/08/11 01:19:40;;;;;;;8.77;4.20;;;;;;;;;;4954480;28;20049;-66
2023/08/11 01:22:13;;;;;;;7.35;4.07;;;;;;;;;;4954512;28;20047;-66
2023/08/11 01:24:39;;;;;;;8.38;2.83;;;;;;;;;;4954671;29;20074;-66
2023/08/11 01:27:05;;;;;;;6.28;2.85;;;;;;;;;;4954631;29;20085;-66
2023/08/11 01:29:30;;;;;;;5.85;2.80;;;;;;;;;;4954826;29;20027;-64
2023/08/11 01:31:56;;;;;;;8.95;2.35;;;;;;;;;;4954334;29;20027;-67
2023/08/11 01:34:22;;;;;;;5.93;2.67;;;;;;;;;;4954261;28;20373;-66
2023/08/11 01:36:50;;;;;;;7.80;2.95;;;;;;;;;;4954426;28;20034;-66
2023/08/11 01:39:16;;;;;;;11.20;3.15;;;;;;;;;;4953239;29;20031;-66
2023/08/11 01:41:41;;;;;;;5.80;2.80;;;;;;;;;;4954474;28;20389;-67
2023/08/11 01:44:07;;;;;;;6.05;2.35;;;;;;;;;;4954302;28;20368;-65
2023/08/11 01:46:33;;;;;;;7.25;2.50;;;;;;;;;;4953013;29;20311;-63
2023/08/11 01:49:00;;;;;;;6.45;2.70;;;;;;;;;;4954073;28;20050;-66
2023/08/11 01:51:26;;;;;;;6.53;2.47;;;;;;;;;;4954051;28;20024;-65
2023/08/11 01:53:52;;;;;;;9.80;3.03;;;;;;;;;;4953966;28;20528;-65
2023/08/11 01:56:20;;;;;;;7.40;2.53;;;;;;;;;;4955841;28;20102;-67
2023/08/11 01:58:45;;;;;;;15.00;2.90;;;;;;;;;;4973221;28;20031;-66
2023/08/11 02:01:13;;;;;;;12.25;3.00;;;;;;;;;;4964128;28;20031;-67
2023/08/11 02:03:39;;;;;;;5.93;2.80;;;;;;;;;;4953677;28;20106;-66
2023/08/11 02:06:05;;;;;;;6.00;2.60;;;;;;;;;;4953771;28;20433;-64
2023/08/11 02:08:31;;;;;;;4.32;2.28;;;;;;;;;;4953764;28;20023;-65
2023/08/11 02:10:57;;;;;;;5.18;2.50;;;;;;;;;;4953676;28;20035;-62
2023/08/11 02:13:23;;;;;;;5.90;2.53;;;;;;;;;;4953549;28;20050;-62
2023/08/11 02:15:48;;;;;;;7.57;2.35;;;;;;;;;;4953508;28;20358;-60
2023/08/11 02:18:14;;;;;;;5.00;2.30;;;;;;;;;;4953168;28;20054;-64
2023/08/11 02:20:39;;;;;;;8.63;2.53;;;;;;;;;;4952909;28;20031;-61
2023/08/11 02:23:05;;;;;;;5.93;2.42;;;;;;;;;;4953663;28;20038;-64
2023/08/11 02:25:30;;;;;;;8.57;2.53;;;;;;;;;;4953457;28;20027;-67
2023/08/11 02:27:56;;;;;;;8.50;2.25;;;;;;;;;;4953453;28;20028;-62
2023/08/11 02:30:22;;;;;;;7.95;2.40;;;;;;;;;;4953362;28;20023;-64
2023/08/11 02:32:47;;;;;;;10.05;2.58;;;;;;;;;;4953254;28;20035;-66
2023/08/11 02:35:14;;;;;;;11.35;2.80;;;;;;;;;;4953327;28;20139;-65
2023/08/11 02:37:41;;;;;;;7.30;2.47;;;;;;;;;;4953183;28;20051;-66
2023/08/11 02:40:10;;;;;;;8.60;2.90;;;;;;;;;;4953390;28;20034;-63
2023/08/11 02:42:38;;;;;;;11.93;2.65;;;;;;;;;;4952940;28;20366;-64
2023/08/11 02:45:08;;;;;;;5.53;2.40;;;;;;;;;;4952646;28;20031;-66
2023/08/11 02:47:34;;;;;;;;;;;;;;;;;;4953214;28;20453;-64
2023/08/11 02:49:59;;;;;;;6.03;2.33;;;;;;;;;;4953118;29;19915;-64
2023/08/11 02:52:25;;;;;;;6.45;2.42;;;;;;;;;;4952842;28;20023;-66
2023/08/11 02:54:50;;;;;;;5.43;2.03;;;;;;;;;;4953058;28;20465;-64
2023/08/11 02:57:16;;;;;;;9.02;2.72;;;;;;;;;;4962239;28;20034;-64
2023/08/11 02:59:44;;;;;;;9.23;2.63;;;;;;;;;;4972005;28;20150;-65
2023/08/11 03:02:11;;;;;;;9.23;2.72;;;;;;;;;;4955035;28;20489;-65
2023/08/11 03:04:36;;;;;;;6.63;2.40;;;;;;;;;;4953041;28;20031;-65
2023/08/11 03:07:05;;;;;;;6.65;2.60;;;;;;;;;;4952888;28;20415;-65
2023/08/11 03:09:31;;;;;;;11.10;2.63;;;;;;;;;;4952751;28;20126;-65
2023/08/11 03:11:56;;;;;;;6.50;2.63;;;;;;;;;;4952671;28;20528;-66
2023/08/11 03:14:22;;;;;;;7.55;2.60;;;;;;;;;;4935536;28;20020;-65
2023/08/11 03:16:47;;;;;;;6.18;2.60;;;;;;;;;;4952240;28;20145;-65
2023/08/11 03:19:13;;;;;;;6.90;2.63;;;;;;;;;;4952588;28;20039;-66
2023/08/11 03:21:38;;;;;;;7.88;2.50;;;;;;;;;;4952584;28;20026;-66
2023/08/11 03:24:04;;;;;;;5.97;2.58;;;;;;;;;;4952672;29;20031;-65
2023/08/11 03:26:29;;;;;;;5.57;2.35;;;;;;;;;;4952698;29;20438;-66
2023/08/11 03:28:55;;;;;;;6.93;2.60;;;;;;;;;;4952710;29;20107;-66
2023/08/11 03:31:20;;;;;;;7.43;2.53;;;;;;;;;;4951943;28;20069;-66
2023/08/11 03:33:46;;;;;;;7.00;2.40;;;;;;;;;;4952047;28;20086;-66
2023/08/11 03:36:11;;;;;;;7.70;2.50;;;;;;;;;;4952494;28;20055;-66
2023/08/11 03:38:37;;;;;;;5.95;2.85;;;;;;;;;;4952208;28;20054;-65
2023/08/11 03:41:02;;;;;;;13.52;3.80;;;;;;;;;;4952465;28;20492;-66
2023/08/11 03:43:28;;;;;;;6.43;2.53;;;;;;;;;;4952654;28;20042;-64
2023/08/11 03:45:53;;;;;;;5.80;2.60;;;;;;;;;;4952188;28;20028;-65
2023/08/11 03:48:18;;;;;;;5.88;2.42;;;;;;;;;;4952677;28;20465;-64
2023/08/11 03:50:45;;;;;;;8.48;2.75;;;;;;;;;;4952491;28;20042;-64
2023/08/11 03:53:12;;;;;;;5.18;2.40;;;;;;;;;;4952293;28;20034;-65
2023/08/11 03:55:38;;;;;;;4.60;2.38;;;;;;;;;;4952039;28;20038;-65
2023/08/11 03:58:03;;;;;;;9.43;2.85;;;;;;;;;;4968448;28;20033;-65
2023/08/11 04:00:29;;;;;;;10.07;2.67;;;;;;;;;;4967966;28;20380;-65
2023/08/11 04:02:54;;;;;;;10.48;2.97;;;;;;;;;;4952283;28;20481;-64
2023/08/11 04:05:20;;;;;;;7.85;2.60;;;;;;;;;;4952334;28;20023;-65
2023/08/11 04:07:45;;;;;;;5.10;2.30;;;;;;;;;;4952020;28;20027;-65
2023/08/11 04:10:11;;;;;;;7.32;2.28;;;;;;;;;;4951958;28;20023;-65
2023/08/11 04:12:37;;;;;;;7.82;2.67;;;;;;;;;;4952150;28;20023;-67
2023/08/11 04:15:03;;;;;;;6.82;2.72;;;;;;;;;;4952008;28;20452;-64
2023/08/11 04:17:29;;;;;;;5.22;2.50;;;;;;;;;;4951840;28;20127;-62
2023/08/11 04:19:54;;;;;;;11.38;2.67;;;;;;;;;;4952182;28;20033;-65
2023/08/11 04:22:20;;;;;;;9.80;2.83;;;;;;;;;;4952197;28;20039;-65
2023/08/11 04:24:46;;;;;;;8.77;2.80;;;;;;;;;;4952311;28;20476;-65
2023/08/11 04:27:11;;;;;;;6.18;2.28;;;;;;;;;;4951869;28;20019;-66
2023/08/11 04:29:36;;;;;;;10.20;2.53;;;;;;;;;;4952119;28;20035;-65
2023/08/11 04:32:04;;;;;;;5.60;2.58;;;;;;;;;;4951779;28;20362;-67
2023/08/11 04:34:31;;;;;;;4.88;2.22;;;;;;;;;;4952221;28;20432;-67
2023/08/11 04:36:57;;;;;;;7.20;2.53;;;;;;;;;;4951946;28;20030;-62
2023/08/11 04:39:22;;;;;;;8.65;2.20;;;;;;;;;;4951802;28;20392;-67
2023/08/11 04:41:47;;;;;;;10.40;2.58;;;;;;;;;;4951800;28;20099;-66
2023/08/11 04:44:14;;;;;;;9.68;2.72;;;;;;;;;;4953845;28;20027;-62
2023/08/11 04:46:40;;;;;;;9.43;2.60;;;;;;;;;;4955240;28;20023;-65
2023/08/11 04:49:05;;;;;;;6.93;2.88;;;;;;;;;;4955299;28;20030;-67
2023/08/11 04:51:32;;;;;;;8.70;2.47;;;;;;;;;;4955196;28;20110;-67
2023/08/11 04:54:01;;;;;;;6.20;2.80;;;;;;;;;;4955109;28;20027;-64
2023/08/11 04:56:27;;;;;;;6.95;2.50;;;;;;;;;;4957815;28;20061;-63
2023/08/11 04:58:55;;;;;;;9.48;2.60;;;;;;;;;;4974106;28;20058;-64
2023/08/11 05:01:21;;;;;;;7.32;2.55;;;;;;;;;;4963901;28;20041;-63
2023/08/11 05:03:47;;;;;;;13.60;3.50;;;;;;;;;;4955189;28;20042;-64
2023/08/11 05:06:12;;;;;;;8.23;3.55;;;;;;;;;;4955101;28;20027;-65
2023/08/11 05:08:37;;;;;;;6.65;2.65;;;;;;;;;;4955006;28;20448;-65
2023/08/11 05:11:03;;;;;;;8.57;3.03;;;;;;;;;;4954647;28;20027;-62
2023/08/11 05:13:29;;;;;;;11.70;2.63;;;;;;;;;;4954761;29;20382;-65
2023/08/11 05:15:54;;;;;;;5.60;2.67;;;;;;;;;;4954344;29;20105;-61
2023/08/11 05:18:19;;;;;;;7.25;2.50;;;;;;;;;;4954660;29;20091;-63
2023/08/11 05:20:46;;;;;;;8.15;2.53;;;;;;;;;;4954592;29;20085;-62
2023/08/11 05:23:12;;;;;;;6.68;2.60;;;;;;;;;;4954713;29;20020;-64
2023/08/11 05:25:38;;;;;;;6.00;2.45;;;;;;;;;;4954453;29;20035;-64
2023/08/11 05:28:03;;;;;;;5.07;2.53;;;;;;;;;;4954540;29;20027;-64
2023/08/11 05:30:29;;;;;;;7.55;2.05;;;;;;;;;;4954239;29;20054;-66
2023/08/11 05:32:55;;;;;;;6.60;2.60;;;;;;;;;;4954312;28;20444;-66
2023/08/11 05:35:20;;;;;;;8.70;2.58;;;;;;;;;;4954448;28;20030;-66
2023/08/11 05:37:47;;;;;;;6.78;2.70;;;;;;;;;;4954264;28;20386;-64
2023/08/11 05:40:12;;;;;;;8.68;2.83;;;;;;;;;;4953877;28;20031;-65
2023/08/11 05:42:38;;;;;;;7.20;2.60;;;;;;;;;;4954295;28;20023;-65
2023/08/11 05:45:04;;;;;;;9.02;2.72;;;;;;;;;;4954031;28;20023;-64
2023/08/11 05:47:30;;;;;;;5.45;2.55;;;;;;;;;;4954082;28;20469;-64
2023/08/11 05:49:55;;;;;;;8.40;2.42;;;;;;;;;;4953822;28;20058;-65
2023/08/11 05:52:21;;;;;;;7.30;2.45;;;;;;;;;;4953865;28;20071;-64
2023/08/11 05:54:47;;;;;;;12.10;2.70;;;;;;;;;;4952945;28;20039;-64
2023/08/11 05:57:12;;;;;;;10.75;2.70;;;;;;;;;;4962430;28;20318;-64
2023/08/11 05:59:38;;;;;;;11.18;2.50;;;;;;;;;;4973134;28;20504;-65
2023/08/11 06:02:03;;;;;;;7.45;2.53;;;;;;;;;;4957298;28;20377;-66
2023/08/11 06:04:29;;;;;;;13.85;2.83;;;;;;;;;;4953962;28;20039;-66
2023/08/11 06:06:54;;;;;;;12.48;2.97;;;;;;;;;;4953924;28;20042;-65
2023/08/11 06:09:20;;;;;;;10.00;2.80;;;;;;;;;;4953620;28;20110;-68
2023/08/11 06:11:45;;;;;;;9.07;2.65;;;;;;;;;;4953898;28;20050;-67
2023/08/11 06:14:11;;;;;;;7.43;3.10;;;;;;;;;;4953804;28;20404;-65
2023/08/11 06:16:36;;;;;;;11.73;2.60;;;;;;;;;;4953501;28;20485;-65
2023/08/11 06:19:02;;;;;;;10.45;2.95;;;;;;;;;;4953808;28;20034;-65
2023/08/11 06:21:28;;;;;;;10.95;2.72;;;;;;;;;;4953864;28;20059;-62
2023/08/11 06:23:53;;;;;;;9.80;2.80;;;;;;;;;;4953345;28;20038;-66
2023/08/11 06:26:19;;;;;;;8.82;2.90;;;;;;;;;;4953478;28;20031;-66
2023/08/11 06:28:45;;;;;;;5.45;2.58;;;;;;;;;;4953606;28;20106;-66
2023/08/11 06:31:10;;;;;;;6.78;2.33;;;;;;;;;;4944431;28;20385;-67
2023/08/11 06:33:36;;;;;;;14.35;3.00;;;;;;;;;;4934169;29;20063;-66
2023/08/11 06:36:01;;;;;;;9.77;2.70;;;;;;;;;;4941810;28;20094;-67
2023/08/11 06:38:27;;;;;;;19.42;3.67;;;;;;;;;;4953240;28;20034;-67
2023/08/11 06:40:52;;;;;;;13.82;2.95;;;;;;;;;;4956770;28;20464;-67
2023/08/11 06:43:18;;;;;;;11.00;2.50;;;;;;;;;;4974050;28;20027;-67
2023/08/11 06:45:45;;;;;;;9.48;3.25;;;;;;;;;;4974247;28;20113;-66
2023/08/11 06:48:11;;;;;;;5.60;2.70;;;;;;;;;;4974252;28;20377;-67
2023/08/11 06:50:37;;;;;;;8.63;2.58;;;;;;;;;;4974195;28;20026;-67
2023/08/11 06:53:03;;;;;;;12.77;3.10;;;;;;;;;;4955670;28;20032;-67
2023/08/11 06:55:28;;;;;;;14.65;3.08;;;;;;;;;;4954777;28;20031;-67
2023/08/11 06:57:53;;;;;;;9.35;2.00;;;;;;;;;;4960499;28;20030;-67
2023/08/11 07:00:19;;;;;;;7.82;2.70;;;;;;;;;;4971948;28;20079;-67
2023/08/11 07:02:44;;;;;;;6.55;2.08;;;;;;;;;;4954749;28;20023;-67
2023/08/11 07:05:12;;;;;;;12.57;3.55;;;;;;;;;;4954411;28;20191;-67
2023/08/11 07:07:37;;;;;;;9.07;2.33;;;;;;;;;;4954183;28;20556;-67
2023/08/11 07:10:03;;;;;;;5.07;1.80;;;;;;;;;;4954605;28;20060;-67
2023/08/11 07:12:28;;;;;;;9.45;2.30;;;;;;;;;;4953391;29;20079;-66
2023/08/11 07:14:54;;;;;;;9.85;2.47;;;;;;;;;;4954611;28;20121;-65
2023/08/11 07:17:20;;;;;;;7.35;2.10;;;;;;;;;;4954255;28;20039;-67
2023/08/11 07:19:45;;;;;;;9.68;2.13;;;;;;;;;;4954387;28;20027;-67
2023/08/11 07:22:10;;;;;;;6.05;1.98;;;;;;;;;;4954318;28;20106;-67
2023/08/11 07:24:36;;;;;;;8.23;2.35;;;;;;;;;;4954513;28;20019;-67
2023/08/11 07:27:01;;;;;;;10.95;2.08;;;;;;;;;;4954098;28;20043;-69
2023/08/11 07:29:27;;;;;;;5.03;2.00;;;;;;;;;;4954289;28;20023;-64
2023/08/11 07:31:52;;;;;;;10.75;3.05;;;;;;;;;;4954079;28;20031;-66
2023/08/11 07:34:19;;;;;;;5.63;1.92;;;;;;;;;;4959116;28;20026;-65
2023/08/11 07:36:44;;;;;;;5.65;2.20;;;;;;;;;;4973301;28;20043;-63
2023/08/11 07:39:10;;;;;;;7.55;1.83;;;;;;;;;;4973604;28;20534;-65
2023/08/11 07:41:36;;;;;;;5.10;1.90;;;;;;;;;;4972910;28;20389;-63
2023/08/11 07:44:02;;;;;;;3.25;1.35;;;;;;;;;;4953886;28;20036;-64
2023/08/11 07:46:28;;;;;;;8.10;1.90;;;;;;;;;;4953880;28;20359;-64
2023/08/11 07:48:53;;;;;;;4.38;1.30;;;;;;;;;;4953867;28;20123;-65
2023/08/11 07:51:18;;;;;;;4.90;1.35;;;;;;;;;;4953719;28;20023;-63
2023/08/11 07:53:44;;;;;;;8.30;2.08;;;;;;;;;;4954025;28;20047;-64
2023/08/11 07:56:11;;;;;;;9.95;2.08;;;;;;;;;;4954064;28;20031;-65
2023/08/11 07:58:37;;;;;;;7.18;2.33;;;;;;;;;;4954091;28;20034;-64
2023/08/11 08:01:02;;;;;;;4.22;1.30;;;;;;;;;;4953720;28;20055;-61
2023/08/11 08:03:28;;;;;;;10.30;2.72;;;;;;;;;;4953540;28;20436;-64
2023/08/11 08:05:53;;;;;;;6.53;1.45;;;;;;;;;;4953767;28;20308;-64
2023/08/11 08:08:19;;;;;;;8.10;1.55;;;;;;;;;;4953820;28;20027;-65
2023/08/11 08:10:44;;;;;;;6.90;1.60;;;;;;;;;;4953996;28;20496;-65
2023/08/11 08:13:09;;;;;;;6.07;1.17;;;;;;;;;;4953908;28;20446;-64
2023/08/11 08:15:35;;;;;;;7.28;1.60;;;;;;;;;;4953751;28;20042;-65
2023/08/11 08:18:00;;;;;;;8.25;1.60;;;;;;;;;;4954030;28;20099;-65
2023/08/11 08:20:26;;;;;;;9.13;2.60;;;;;;;;;;4957379;28;20027;-67
2023/08/11 08:22:52;;;;;;;4.10;1.75;;;;;;;;;;4957530;28;20071;-62
2023/08/11 08:25:17;;;;;;;6.10;1.55;;;;;;;;;;4957317;28;20027;-65
2023/08/11 08:27:43;;;;;;;5.80;1.67;;;;;;;;;;4956961;28;20046;-65
2023/08/11 08:30:10;;;;;;;5.00;1.33;;;;;;;;;;4957255;28;20023;-65
2023/08/11 08:32:37;;;;;;;4.05;1.25;;;;;;;;;;4957158;28;20027;-66
2023/08/11 08:35:03;;;;;;;8.60;2.60;;;;;;;;;;4967624;28;20054;-65
2023/08/11 08:37:29;;;;;;;6.03;1.98;;;;;;;;;;4976494;28;20081;-65
2023/08/11 08:39:55;;;;;;;3.33;1.58;;;;;;;;;;4976596;28;20539;-66
2023/08/11 08:42:22;;;;;;;10.90;2.55;;;;;;;;;;4969798;28;20057;-64
2023/08/11 08:44:52;;;;;;;5.85;1.70;;;;;;;;;;4957122;28;20034;-64
2023/08/11 08:47:19;;;;;;;5.30;1.35;;;;;;;;;;4957048;28;20031;-64
2023/08/11 08:49:49;;;;;;;4.75;1.30;;;;;;;;;;4956663;28;20042;-65
2023/08/11 08:52:15;;;;;;;4.85;1.65;;;;;;;;;;4956575;28;20067;-66
2023/08/11 08:54:41;;;;;;;6.35;1.60;;;;;;;;;;4957044;28;20534;-65
2023/08/11 08:57:09;;;;;;;4.40;1.20;;;;;;;;;;4956686;28;20027;-62
2023/08/11 08:59:36;;;;;;;4.90;1.70;;;;;;;;;;4956665;28;20118;-67
2023/08/11 09:02:01;;;;;;;5.35;2.00;;;;;;;;;;4956750;28;20109;-66
2023/08/11 09:04:27;;;;;;;6.82;1.95;;;;;;;;;;4956673;28;20078;-66
2023/08/11 09:06:53;;;;;;;4.30;1.80;;;;;;;;;;4955224;28;20496;-66
2023/08/11 09:09:19;;;;;;;6.45;1.90;;;;;;;;;;4956640;28;20071;-66
2023/08/11 09:11:45;;;;;;;5.18;1.90;;;;;;;;;;4956588;28;20094;-65
2023/08/11 09:14:10;;;;;;;6.53;1.40;;;;;;;;;;4956698;28;20027;-65
2023/08/11 09:16:37;;;;;;;5.20;1.55;;;;;;;;;;4956400;28;20404;-66
2023/08/11 09:19:11;;;;;;;4.60;1.20;;;;;;;;;;4956283;28;20035;-66
2023/08/11 09:21:36;;;;;;;2.90;1.17;;;;;;;;;;4956465;28;20027;-65
2023/08/11 09:24:02;;;;;;;4.38;1.20;;;;;;;;;;4956510;28;20132;-66
2023/08/11 09:26:28;;;;;;;4.80;1.40;;;;;;;;;;4956232;28;20024;-66
2023/08/11 09:28:54;;;;;;;5.80;1.40;;;;;;;;;;4956039;28;20485;-66
2023/08/11 09:31:21;;;;;;;6.10;1.70;;;;;;;;;;4954507;28;20035;-66
2023/08/11 09:33:46;;;;;;;6.07;1.67;;;;;;;;;;4955777;28;20404;-66
2023/08/11 09:36:12;;;;;;;3.90;1.35;;;;;;;;;;4959736;28;20117;-66
2023/08/11 09:38:40;;;;;;;4.72;1.35;;;;;;;;;;4952519;29;20019;-66
2023/08/11 09:41:08;;;;;;;5.63;1.80;;;;;;;;;;4955958;28;20421;-66
2023/08/11 09:43:35;;;;;;;4.65;1.10;;;;;;;;;;4955805;28;20032;-66
2023/08/11 09:46:00;;;;;;;3.38;1.25;;;;;;;;;;4955500;28;20030;-65
2023/08/11 09:48:26;;;;;;;3.60;1.23;;;;;;;;;;4955730;28;20028;-66
2023/08/11 09:50:52;;;;;;;5.47;1.38;;;;;;;;;;4954384;28;20333;-65
2023/08/11 09:53:19;;;;;;;5.80;1.30;;;;;;;;;;4955668;28;20043;-66
2023/08/11 09:55:48;;;;;;;5.95;1.50;;;;;;;;;;4955316;28;20051;-66
2023/08/11 09:58:14;;;;;;;2.93;1.30;;;;;;;;;;4955800;28;20027;-65
2023/08/11 10:00:40;;;;;;;4.05;1.50;;;;;;;;;;4955487;28;20103;-65
2023/08/11 10:03:12;;;;;;;5.80;1.55;;;;;;;;;;4955225;28;20027;-68
2023/08/11 10:05:42;;;;;;;5.15;1.42;;;;;;;;;;4971132;28;20066;-66
2023/08/11 10:08:11;;;;;;;4.18;1.38;;;;;;;;;;4975001;28;20027;-66
2023/08/11 10:10:38;;;;;;;4.35;1.75;;;;;;;;;;4974960;28;20049;-66
2023/08/11 10:13:17;;;;;;;5.03;1.33;;;;;;;;;;4974748;28;20031;-66
2023/08/11 10:15:44;;;;;;;3.80;1.30;;;;;;;;;;4973261;28;20070;-66
2023/08/11 10:18:10;;;;;;;4.03;1.40;;;;;;;;;;4974500;28;20075;-66
2023/08/11 10:20:36;;;;;;;3.22;1.13;;;;;;;;;;4974594;28;20026;-66
2023/08/11 10:23:03;;;;;;;2.75;1.50;;;;;;;;;;4974472;28;20447;-65
2023/08/11 10:25:30;;;;;;;4.20;1.25;;;;;;;;;;4974576;28;20065;-66
2023/08/11 10:27:56;;;;;;;4.13;1.33;;;;;;;;;;4974289;28;20039;-66
2023/08/11 10:30:23;;;;;;;3.72;1.23;;;;;;;;;;4968681;28;20109;-66
2023/08/11 10:33:01;;;;;;;5.70;1.40;;;;;;;;;;4955021;28;20039;-65
2023/08/11 10:35:33;;;;;;;3.80;1.55;;;;;;;;;;4969135;28;20027;-64
2023/08/11 10:37:59;;;;;;;2.80;1.13;;;;;;;;;;4974322;28;20022;-65
2023/08/11 10:40:37;;;;;;;3.10;1.20;;;;;;;;;;4974341;28;20472;-66
2023/08/11 10:43:03;;;;;;;3.15;1.20;;;;;;;;;;4961769;28;20337;-65
2023/08/11 10:45:32;;;;;;;5.43;1.50;;;;;;;;;;4954749;28;20038;-66
2023/08/11 10:47:58;;;;;;;3.88;1.40;;;;;;;;;;4954483;28;20030;-65
2023/08/11 10:50:26;;;;;;;4.57;1.27;;;;;;;;;;4954738;28;20039;-66
2023/08/11 10:53:18;;;;;;;3.05;1.23;;;;;;;;;;4954692;28;20027;-65
2023/08/11 10:56:02;;;;;;;3.60;1.27;;;;;;;;;;4954757;28;20444;-66
2023/08/11 10:58:32;;;;;;;5.43;1.40;;;;;;;;;;4954905;28;20023;-66
2023/08/11 11:00:58;;;;;;;3.60;1.40;;;;;;;;;;4954318;28;20396;-66
2023/08/11 11:03:25;;;;;;;6.55;1.70;;;;;;;;;;4954659;28;20469;-66
2023/08/11 11:05:50;;;;;;;5.05;1.65;;;;;;;;;;4954509;28;20046;-66
2023/08/11 11:08:16;;;;;;;5.70;1.45;;;;;;;;;;4954133;28;20027;-65
2023/08/11 11:10:42;;;;;;;2.63;1.40;;;;;;;;;;4954442;28;20046;-66
2023/08/11 11:13:07;;;;;;;3.17;1.42;;;;;;;;;;4954299;28;20389;-66
2023/08/11 11:15:34;;;;;;;4.32;1.38;;;;;;;;;;4954185;28;20035;-65
2023/08/11 11:17:59;;;;;;;5.75;1.60;;;;;;;;;;4954355;28;20074;-66
2023/08/11 11:20:26;;;;;;;4.35;1.48;;;;;;;;;;4954481;28;20409;-65
2023/08/11 11:22:51;;;;;;;3.33;1.23;;;;;;;;;;4954210;28;20063;-65
2023/08/11 11:25:17;;;;;;;3.75;1.40;;;;;;;;;;4953782;28;20069;-65
2023/08/11 11:27:43;;;;;;;2.88;1.30;;;;;;;;;;4954086;28;20035;-65
2023/08/11 11:30:10;;;;;;;4.50;1.60;;;;;;;;;;4954182;28;20038;-65
2023/08/11 11:32:36;;;;;;;5.57;1.50;;;;;;;;;;4954188;28;20110;-66
2023/08/11 11:35:04;;;;;;;5.30;1.48;;;;;;;;;;4964744;28;20416;-66
2023/08/11 11:37:31;;;;;;;3.70;1.38;;;;;;;;;;4973404;28;20023;-66
2023/08/11 11:39:58;;;;;;;4.20;1.27;;;;;;;;;;4973403;28;20546;-65
2023/08/11 11:42:28;;;;;;;5.47;1.35;;;;;;;;;;4966438;28;20035;-65
2023/08/11 11:44:54;;;;;;;7.28;1.30;;;;;;;;;;4954200;28;20028;-66
2023/08/11 11:47:19;;;;;;;2.72;1.48;;;;;;;;;;4952787;28;20078;-65
2023/08/11 11:49:45;;;;;;;4.82;1.42;;;;;;;;;;4953859;28;20037;-66
2023/08/11 11:52:10;;;;;;;6.68;1.40;;;;;;;;;;4953882;28;20031;-66
2023/08/11 11:54:36;;;;;;;3.40;1.40;;;;;;;;;;4956881;28;20027;-66
2023/08/11 11:57:05;;;;;;;3.92;1.25;;;;;;;;;;4957653;28;20031;-65
2023/08/11 11:59:31;;;;;;;4.93;1.83;;;;;;;;;;4938729;29;20032;-65
2023/08/11 12:02:00;;;;;;;3.13;1.05;;;;;;;;;;4953446;29;20035;-65
2023/08/11 12:04:25;;;;;;;3.47;1.30;;;;;;;;;;4957539;28;20038;-65
2023/08/11 12:06:51;;;;;;;4.18;1.25;;;;;;;;;;4957736;29;20110;-65
2023/08/11 12:09:16;;;;;;;5.75;1.40;;;;;;;;;;4956484;29;20497;-64
2023/08/11 12:11:42;;;;;;;5.38;1.20;;;;;;;;;;4957458;29;20034;-65
2023/08/11 12:14:11;;;;;;;3.30;1.17;;;;;;;;;;4957538;28;20028;-64
2023/08/11 12:16:36;;;;;;;5.15;1.08;;;;;;;;;;4957401;28;20138;-65
2023/08/11 12:19:03;;;;;;;6.45;1.40;;;;;;;;;;4957467;29;20167;-65
2023/08/11 12:21:28;;;;;;;5.85;1.30;;;;;;;;;;4957587;28;20023;-65
2023/08/11 12:23:54;;;;;;;4.10;1.05;;;;;;;;;;4956034;29;20409;-64
2023/08/11 12:26:20;;;;;;;6.28;1.50;;;;;;;;;;4957165;29;20023;-65
2023/08/11 12:28:45;;;;;;;6.72;1.27;;;;;;;;;;4957157;29;20042;-65
2023/08/11 12:31:11;;;;;;;3.47;1.15;;;;;;;;;;4957069;29;20032;-66
2023/08/11 12:33:38;;;;;;;3.42;1.23;;;;;;;;;;4957123;28;20047;-66
2023/08/11 12:36:03;;;;;;;2.70;1.00;;;;;;;;;;4976010;28;20075;-66
2023/08/11 12:38:30;;;;;;;8.07;1.30;;;;;;;;;;4976521;28;20035;-65
2023/08/11 12:40:57;;;;;;;7.43;1.63;;;;;;;;;;4976182;28;20033;-65
2023/08/11 12:43:22;;;;;;;3.25;1.05;;;;;;;;;;4961547;28;20035;-65
2023/08/11 12:45:48;;;;;;;4.40;1.40;;;;;;;;;;4956853;28;20075;-65
2023/08/11 12:48:14;;;;;;;2.50;1.10;;;;;;;;;;4957031;28;20024;-65
2023/08/11 12:50:40;;;;;;;2.75;1.23;;;;;;;;;;4956971;28;20481;-64
2023/08/11 12:53:06;;;;;;;5.57;1.40;;;;;;;;;;4956579;28;20027;-65
2023/08/11 12:55:33;;;;;;;3.10;0.90;;;;;;;;;;4956699;28;20110;-67
2023/08/11 12:58:01;;;;;;;2.78;0.90;;;;;;;;;;4955512;28;20031;-65
2023/08/11 13:00:27;;;;;;;7.93;1.50;;;;;;;;;;4956860;28;20031;-67
2023/08/11 13:02:52;;;;;;;6.00;1.30;;;;;;;;;;4956540;28;20385;-67
2023/08/11 13:05:18;;;;;;;6.82;1.20;;;;;;;;;;4956262;28;20031;-64
2023/08/11 13:07:43;;;;;;;5.97;1.55;;;;;;;;;;4956723;28;20027;-66
2023/08/11 13:10:10;;;;;;;5.90;1.30;;;;;;;;;;4956535;28;20540;-67
2023/08/11 13:12:37;;;;;;;3.70;1.35;;;;;;;;;;4956699;28;20045;-65
2023/08/11 13:15:03;;;;;;;3.60;1.15;;;;;;;;;;4956331;28;20440;-66
2023/08/11 13:17:29;;;;;;;2.20;1.00;;;;;;;;;;4956398;28;20452;-66
2023/08/11 13:19:54;;;;;;;2.05;0.90;;;;;;;;;;4956448;28;20031;-65
2023/08/11 13:22:20;;;;;;;5.65;1.20;;;;;;;;;;4956168;28;20023;-66
2023/08/11 13:24:45;;;;;;;3.22;1.20;;;;;;;;;;4956295;28;20027;-65
2023/08/11 13:27:11;;;;;;;5.07;1.10;;;;;;;;;;4956300;28;20050;-67
2023/08/11 13:29:37;;;;;;;3.58;1.27;;;;;;;;;;4956162;28;20318;-66
2023/08/11 13:32:02;;;;;;;1.65;1.00;;;;;;;;;;4956290;28;20056;-66
2023/08/11 13:34:28;;;;;;;3.42;1.10;;;;;;;;;;4962468;28;20358;-67
2023/08/11 13:36:53;;;;;;;3.80;1.27;;;;;;;;;;4975210;28;20034;-66
2023/08/11 13:39:19;;;;;;;5.50;1.10;;;;;;;;;;4975186;28;20085;-67
2023/08/11 13:41:44;;;;;;;10.43;1.45;;;;;;;;;;4973892;28;20072;-67
2023/08/11 13:44:11;;;;;;;5.72;1.30;;;;;;;;;;4955879;28;20034;-67
2023/08/11 13:46:40;;;;;;;4.05;1.05;;;;;;;;;;4956045;28;20035;-65
2023/08/11 13:49:06;;;;;;;2.67;1.02;;;;;;;;;;4956010;28;20503;-67
2023/08/11 13:51:32;;;;;;;4.60;1.30;;;;;;;;;;4955954;28;20038;-67
2023/08/11 13:54:02;;;;;;;3.63;1.20;;;;;;;;;;4955505;28;20046;-67
2023/08/11 13:56:27;;;;;;;2.95;1.30;;;;;;;;;;4955824;28;20094;-67
2023/08/11 13:58:53;;;;;;;4.25;1.27;;;;;;;;;;4955952;28;20046;-67
2023/08/11 14:01:18;;;;;;;4.05;1.20;;;;;;;;;;4955579;28;20491;-67
2023/08/11 14:03:43;;;;;;;2.30;1.00;;;;;;;;;;4955278;28;20031;-67
2023/08/11 14:06:09;;;;;;;2.63;1.38;;;;;;;;;;4955712;28;20031;-67
2023/08/11 14:08:35;;;;;;;5.07;1.35;;;;;;;;;;4955547;28;20031;-66
2023/08/11 14:11:00;;;;;;;3.30;1.25;;;;;;;;;;4955684;28;20102;-66
2023/08/11 14:13:27;;;;;;;2.47;1.00;;;;;;;;;;4955514;28;20032;-66
2023/08/11 14:15:54;;;;;;;3.20;1.20;;;;;;;;;;4954853;28;20481;-67
2023/08/11 14:18:20;;;;;;;2.85;1.00;;;;;;;;;;4955508;28;20058;-66
2023/08/11 14:20:45;;;;;;;2.95;1.10;;;;;;;;;;4955554;28;20023;-67
2023/08/11 14:23:11;;;;;;;2.38;1.10;;;;;;;;;;4955016;28;20027;-65
2023/08/11 14:25:36;;;;;;;6.65;1.10;;;;;;;;;;4955035;28;20027;-66
2023/08/11 14:28:02;;;;;;;2.38;1.02;;;;;;;;;;4955230;28;20045;-65
2023/08/11 14:30:28;;;;;;;4.82;1.55;;;;;;;;;;4955222;28;20027;-66
2023/08/11 14:32:53;;;;;;;5.68;1.20;;;;;;;;;;4954999;28;20543;-67
2023/08/11 14:35:18;;;;;;;3.00;1.13;;;;;;;;;;4967821;28;20030;-66